sensor_id;sensor_type;location;lat;lon;timestamp;P1;durP1;ratioP1;P2;durP2;ratioP2
45382;SDS011;42455;51.660;5.824;2023-04-06T00:02:49;13.0;;;12.0;;
45382;SDS011;42455;51.660;5.824;2023-04-06T00:07:56;13.0;;;12.0;;
45382;SDS011;42455;51.660;5.824;2023-04-06T00:13:01;13.0;;;12.0;;
45382;SDS011;42455;51.660;5.824;2023-04-06T00:18:07;13.0;;;12.0;;
45382;SDS011;42455;51.660;5.824;2023-04-06T00:23:13;13.0;;;12.0;;
45382;SDS011;42455;51.660;5.824;2023-04-06T00:28:19;14.0;;;12.0;;
45382;SDS011;42455;51.660;5.824;2023-04-06T00:33:26;13.0;;;11.0;;
45382;SDS011;42455;51.660;5.824;2023-04-06T00:38:32;14.0;;;12.0;;
45382;SDS011;42455;51.660;5.824;2023-04-06T00:43:38;14.0;;;12.0;;
45382;SDS011;42455;51.660;5.824;2023-04-06T00:48:44;14.0;;;12.0;;
45382;SDS011;42455;51.660;5.824;2023-04-06T00:53:50;13.0;;;12.0;;
45382;SDS011;42455;51.660;5.824;2023-04-06T00:58:56;14.0;;;12.0;;
45382;SDS011;42455;51.660;5.824;2023-04-06T01:04:03;14.0;;;12.0;;
45382;SDS011;42455;51.660;5.824;2023-04-06T01:09:09;15.0;;;13.0;;
45382;SDS011;42455;51.660;5.824;2023-04-06T01:14:15;14.0;;;12.0;;
45382;SDS011;42455;51.660;5.824;2023-04-06T01:19:21;14.0;;;12.0;;
45382;SDS011;42455;51.660;5.824;2023-04-06T01:24:28;15.0;;;12.0;;
45382;SDS011;42455;51.660;5.824;2023-04-06T01:29:34;15.0;;;12.0;;
45382;SDS011;42455;51.660;5.824;2023-04-06T01:34:40;14.5;;;12.0;;
45382;SDS011;42455;51.660;5.824;2023-04-06T01:39:46;16.0;;;13.0;;
45382;SDS011;42455;51.660;5.824;2023-04-06T01:44:52;14.0;;;12.0;;
45382;SDS011;42455;51.660;5.824;2023-04-06T01:49:59;15.0;;;13.0;;
45382;SDS011;42455;51.660;5.824;2023-04-06T01:55:05;15.5;;;13.0;;
45382;SDS011;42455;51.660;5.824;2023-04-06T02:00:10;16.0;;;13.0;;
45382;SDS011;42455;51.660;5.824;2023-04-06T02:05:16;14.5;;;13.0;;
45382;SDS011;42455;51.660;5.824;2023-04-06T02:10:22;16.0;;;13.0;;
45382;SDS011;42455;51.660;5.824;2023-04-06T02:15:29;14.5;;;13.0;;
45382;SDS011;42455;51.660;5.824;2023-04-06T02:20:35;15.0;;;13.0;;
45382;SDS011;42455;51.660;5.824;2023-04-06T02:25:41;15.0;;;13.0;;
45382;SDS011;42455;51.660;5.824;2023-04-06T02:30:47;16.0;;;13.0;;
45382;SDS011;42455;51.660;5.824;2023-04-06T02:35:53;16.0;;;13.0;;
45382;SDS011;42455;51.660;5.824;2023-04-06T02:41:00;16.0;;;13.0;;
45382;SDS011;42455;51.660;5.824;2023-04-06T02:46:06;15.0;;;13.0;;
45382;SDS011;42455;51.660;5.824;2023-04-06T02:51:12;16.0;;;13.0;;
45382;SDS011;42455;51.660;5.824;2023-04-06T02:56:18;17.0;;;13.0;;
45382;SDS011;42455;51.660;5.824;2023-04-06T03:01:25;17.0;;;13.0;;
45382;SDS011;42455;51.660;5.824;2023-04-06T03:06:31;15.0;;;12.0;;
45382;SDS011;42455;51.660;5.824;2023-04-06T03:11:37;15.0;;;13.0;;
45382;SDS011;42455;51.660;5.824;2023-04-06T03:16:43;14.0;;;12.0;;
45382;SDS011;42455;51.660;5.824;2023-04-06T03:21:49;15.0;;;13.0;;
45382;SDS011;42455;51.660;5.824;2023-04-06T03:26:55;15.0;;;13.0;;
45382;SDS011;42455;51.660;5.824;2023-04-06T03:32:02;15.5;;;13.0;;
45382;SDS011;42455;51.660;5.824;2023-04-06T03:37:08;17.0;;;12.0;;
45382;SDS011;42455;51.660;5.824;2023-04-06T03:42:14;16.0;;;13.0;;
45382;SDS011;42455;51.660;5.824;2023-04-06T03:47:19;15.0;;;13.0;;
45382;SDS011;42455;51.660;5.824;2023-04-06T03:52:26;17.0;;;13.0;;
45382;SDS011;42455;51.660;5.824;2023-04-06T03:57:31;16.0;;;13.0;;
45382;SDS011;42455;51.660;5.824;2023-04-06T04:02:37;15.5;;;13.0;;
45382;SDS011;42455;51.660;5.824;2023-04-06T04:07:43;16.0;;;14.0;;
45382;SDS011;42455;51.660;5.824;2023-04-06T04:12:49;16.0;;;14.0;;
45382;SDS011;42455;51.660;5.824;2023-04-06T04:17:56;16.0;;;13.0;;
45382;SDS011;42455;51.660;5.824;2023-04-06T04:23:02;16.0;;;13.0;;
45382;SDS011;42455;51.660;5.824;2023-04-06T04:28:08;16.0;;;14.0;;
45382;SDS011;42455;51.660;5.824;2023-04-06T04:33:14;17.0;;;14.0;;
45382;SDS011;42455;51.660;5.824;2023-04-06T04:38:21;16.0;;;14.0;;
45382;SDS011;42455;51.660;5.824;2023-04-06T04:43:27;15.0;;;13.0;;
45382;SDS011;42455;51.660;5.824;2023-04-06T04:48:33;16.0;;;14.0;;
45382;SDS011;42455;51.660;5.824;2023-04-06T04:53:39;16.0;;;14.0;;
45382;SDS011;42455;51.660;5.824;2023-04-06T04:58:45;18.0;;;15.0;;
45382;SDS011;42455;51.660;5.824;2023-04-06T05:03:52;17.0;;;15.0;;
45382;SDS011;42455;51.660;5.824;2023-04-06T05:08:58;18.0;;;15.0;;
45382;SDS011;42455;51.660;5.824;2023-04-06T05:14:04;17.0;;;15.0;;
45382;SDS011;42455;51.660;5.824;2023-04-06T05:24:16;19.0;;;16.0;;
45382;SDS011;42455;51.660;5.824;2023-04-06T05:29:23;18.0;;;16.0;;
45382;SDS011;42455;51.660;5.824;2023-04-06T05:34:29;19.0;;;16.0;;
45382;SDS011;42455;51.660;5.824;2023-04-06T05:39:35;21.0;;;16.0;;
45382;SDS011;42455;51.660;5.824;2023-04-06T05:44:41;19.0;;;17.0;;
45382;SDS011;42455;51.660;5.824;2023-04-06T05:49:46;21.0;;;17.0;;
45382;SDS011;42455;51.660;5.824;2023-04-06T05:54:53;22.0;;;16.5;;
45382;SDS011;42455;51.660;5.824;2023-04-06T05:59:59;22.0;;;17.0;;
45382;SDS011;42455;51.660;5.824;2023-04-06T06:05:04;24.0;;;17.0;;
45382;SDS011;42455;51.660;5.824;2023-04-06T06:10:10;21.0;;;17.0;;
45382;SDS011;42455;51.660;5.824;2023-04-06T06:15:16;20.0;;;17.0;;
45382;SDS011;42455;51.660;5.824;2023-04-06T06:20:23;20.0;;;16.0;;
45382;SDS011;42455;51.660;5.824;2023-04-06T06:25:29;22.0;;;17.0;;
45382;SDS011;42455;51.660;5.824;2023-04-06T06:30:35;20.0;;;16.0;;
45382;SDS011;42455;51.660;5.824;2023-04-06T06:35:41;19.0;;;15.0;;
45382;SDS011;42455;51.660;5.824;2023-04-06T06:40:48;19.5;;;15.0;;
45382;SDS011;42455;51.660;5.824;2023-04-06T06:45:54;18.0;;;15.0;;
45382;SDS011;42455;51.660;5.824;2023-04-06T06:51:00;17.0;;;15.0;;
45382;SDS011;42455;51.660;5.824;2023-04-06T06:56:06;18.0;;;15.0;;
45382;SDS011;42455;51.660;5.824;2023-04-06T07:01:12;17.5;;;15.0;;
45382;SDS011;42455;51.660;5.824;2023-04-06T07:06:19;16.0;;;14.0;;
45382;SDS011;42455;51.660;5.824;2023-04-06T07:11:25;17.0;;;15.0;;
45382;SDS011;42455;51.660;5.824;2023-04-06T07:16:31;17.0;;;15.0;;
45382;SDS011;42455;51.660;5.824;2023-04-06T07:21:37;16.0;;;15.0;;
45382;SDS011;42455;51.660;5.824;2023-04-06T07:26:43;16.0;;;14.0;;
45382;SDS011;42455;51.660;5.824;2023-04-06T07:31:50;17.0;;;14.0;;
45382;SDS011;42455;51.660;5.824;2023-04-06T07:36:56;17.0;;;14.0;;
45382;SDS011;42455;51.660;5.824;2023-04-06T07:42:02;17.0;;;14.0;;
45382;SDS011;42455;51.660;5.824;2023-04-06T07:47:08;16.0;;;14.0;;
45382;SDS011;42455;51.660;5.824;2023-04-06T07:52:13;15.5;;;13.0;;
45382;SDS011;42455;51.660;5.824;2023-04-06T07:57:20;16.0;;;14.0;;
45382;SDS011;42455;51.660;5.824;2023-04-06T08:02:25;15.0;;;13.0;;
45382;SDS011;42455;51.660;5.824;2023-04-06T08:07:31;16.0;;;14.0;;
45382;SDS011;42455;51.660;5.824;2023-04-06T08:12:36;16.0;;;14.0;;
45382;SDS011;42455;51.660;5.824;2023-04-06T08:17:43;16.0;;;14.0;;
45382;SDS011;42455;51.660;5.824;2023-04-06T08:22:49;15.5;;;14.0;;
45382;SDS011;42455;51.660;5.824;2023-04-06T08:27:55;16.0;;;14.0;;
45382;SDS011;42455;51.660;5.824;2023-04-06T08:33:01;17.0;;;14.0;;
45382;SDS011;42455;51.660;5.824;2023-04-06T08:38:07;15.0;;;14.0;;
45382;SDS011;42455;51.660;5.824;2023-04-06T08:43:14;17.0;;;14.0;;
45382;SDS011;42455;51.660;5.824;2023-04-06T08:48:20;16.0;;;14.0;;
45382;SDS011;42455;51.660;5.824;2023-04-06T08:58:34;16.0;;;14.0;;
45382;SDS011;42455;51.660;5.824;2023-04-06T09:03:39;16.0;;;13.5;;
45382;SDS011;42455;51.660;5.824;2023-04-06T09:08:45;15.0;;;13.5;;
45382;SDS011;42455;51.660;5.824;2023-04-06T09:13:53;16.0;;;14.0;;
45382;SDS011;42455;51.660;5.824;2023-04-06T09:19:03;17.0;;;14.0;;
45382;SDS011;42455;51.660;5.824;2023-04-06T09:24:03;16.0;;;14.0;;
45382;SDS011;42455;51.660;5.824;2023-04-06T09:29:09;16.0;;;14.0;;
45382;SDS011;42455;51.660;5.824;2023-04-06T09:34:20;17.0;;;14.0;;
45382;SDS011;42455;51.660;5.824;2023-04-06T09:39:22;16.0;;;14.0;;
45382;SDS011;42455;51.660;5.824;2023-04-06T09:44:29;16.0;;;14.0;;
45382;SDS011;42455;51.660;5.824;2023-04-06T09:49:34;17.0;;;14.0;;
45382;SDS011;42455;51.660;5.824;2023-04-06T09:54:39;16.0;;;14.0;;
45382;SDS011;42455;51.660;5.824;2023-04-06T09:59:56;16.0;;;14.0;;
45382;SDS011;42455;51.660;5.824;2023-04-06T10:05:02;19.0;;;15.0;;
45382;SDS011;42455;51.660;5.824;2023-04-06T10:09:58;16.0;;;14.0;;
45382;SDS011;42455;51.660;5.824;2023-04-06T10:15:03;15.0;;;13.0;;
45382;SDS011;42455;51.660;5.824;2023-04-06T10:20:10;16.5;;;14.0;;
45382;SDS011;42455;51.660;5.824;2023-04-06T10:25:16;15.5;;;14.0;;
45382;SDS011;42455;51.660;5.824;2023-04-06T10:30:22;15.0;;;13.0;;
45382;SDS011;42455;51.660;5.824;2023-04-06T10:35:36;17.0;;;14.0;;
45382;SDS011;42455;51.660;5.824;2023-04-06T10:40:35;17.0;;;14.0;;
45382;SDS011;42455;51.660;5.824;2023-04-06T10:45:41;15.0;;;14.0;;
45382;SDS011;42455;51.660;5.824;2023-04-06T10:50:50;16.0;;;14.0;;
45382;SDS011;42455;51.660;5.824;2023-04-06T10:55:55;15.0;;;14.0;;
45382;SDS011;42455;51.660;5.824;2023-04-06T11:00:59;15.0;;;13.0;;
45382;SDS011;42455;51.660;5.824;2023-04-06T11:06:06;14.0;;;12.0;;
45382;SDS011;42455;51.660;5.824;2023-04-06T11:11:12;11.0;;;10.0;;
45382;SDS011;42455;51.660;5.824;2023-04-06T11:16:20;11.0;;;10.0;;
45382;SDS011;42455;51.660;5.824;2023-04-06T11:21:33;11.0;;;9.0;;
45382;SDS011;42455;51.660;5.824;2023-04-06T11:26:30;10.0;;;9.0;;
45382;SDS011;42455;51.660;5.824;2023-04-06T11:31:37;8.0;;;7.0;;
45382;SDS011;42455;51.660;5.824;2023-04-06T11:36:43;8.0;;;7.0;;
45382;SDS011;42455;51.660;5.824;2023-04-06T11:41:49;6.0;;;5.0;;
45382;SDS011;42455;51.660;5.824;2023-04-06T11:46:56;5.0;;;5.0;;
45382;SDS011;42455;51.660;5.824;2023-04-06T11:52:02;5.0;;;5.0;;
45382;SDS011;42455;51.660;5.824;2023-04-06T11:57:08;7.0;;;6.0;;
45382;SDS011;42455;51.660;5.824;2023-04-06T12:02:13;7.0;;;6.0;;
45382;SDS011;42455;51.660;5.824;2023-04-06T12:07:19;7.0;;;6.0;;
45382;SDS011;42455;51.660;5.824;2023-04-06T12:12:25;7.0;;;6.0;;
45382;SDS011;42455;51.660;5.824;2023-04-06T12:17:30;6.0;;;5.5;;
45382;SDS011;42455;51.660;5.824;2023-04-06T12:22:37;6.0;;;5.0;;
45382;SDS011;42455;51.660;5.824;2023-04-06T12:27:43;7.0;;;6.0;;
45382;SDS011;42455;51.660;5.824;2023-04-06T12:32:49;6.0;;;5.0;;
45382;SDS011;42455;51.660;5.824;2023-04-06T12:37:55;6.0;;;5.0;;
45382;SDS011;42455;51.660;5.824;2023-04-06T12:43:01;7.0;;;6.0;;
45382;SDS011;42455;51.660;5.824;2023-04-06T12:48:08;6.0;;;6.0;;
45382;SDS011;42455;51.660;5.824;2023-04-06T12:53:14;8.0;;;6.0;;
45382;SDS011;42455;51.660;5.824;2023-04-06T12:58:20;7.0;;;6.0;;
45382;SDS011;42455;51.660;5.824;2023-04-06T13:03:26;8.0;;;7.0;;
45382;SDS011;42455;51.660;5.824;2023-04-06T13:08:32;8.0;;;7.0;;
45382;SDS011;42455;51.660;5.824;2023-04-06T13:13:39;8.0;;;8.0;;
45382;SDS011;42455;51.660;5.824;2023-04-06T13:18:45;9.0;;;8.0;;
45382;SDS011;42455;51.660;5.824;2023-04-06T13:23:51;9.0;;;8.0;;
45382;SDS011;42455;51.660;5.824;2023-04-06T13:28:58;9.0;;;8.0;;
45382;SDS011;42455;51.660;5.824;2023-04-06T13:34:04;9.0;;;8.0;;
45382;SDS011;42455;51.660;5.824;2023-04-06T13:39:10;9.0;;;8.0;;
45382;SDS011;42455;51.660;5.824;2023-04-06T13:44:16;9.0;;;8.0;;
45382;SDS011;42455;51.660;5.824;2023-04-06T13:49:22;10.0;;;9.0;;
45382;SDS011;42455;51.660;5.824;2023-04-06T13:54:28;9.0;;;8.0;;
45382;SDS011;42455;51.660;5.824;2023-04-06T13:59:35;9.0;;;8.0;;
45382;SDS011;42455;51.660;5.824;2023-04-06T14:04:40;9.0;;;8.0;;
45382;SDS011;42455;51.660;5.824;2023-04-06T14:09:46;9.0;;;8.0;;
45382;SDS011;42455;51.660;5.824;2023-04-06T14:14:52;8.0;;;7.0;;
45382;SDS011;42455;51.660;5.824;2023-04-06T14:25:05;8.0;;;8.0;;
45382;SDS011;42455;51.660;5.824;2023-04-06T14:30:11;9.0;;;8.0;;
45382;SDS011;42455;51.660;5.824;2023-04-06T14:35:17;9.0;;;8.0;;
45382;SDS011;42455;51.660;5.824;2023-04-06T14:40:23;9.0;;;8.0;;
45382;SDS011;42455;51.660;5.824;2023-04-06T14:45:32;9.0;;;8.0;;
45382;SDS011;42455;51.660;5.824;2023-04-06T14:50:36;9.0;;;8.0;;
45382;SDS011;42455;51.660;5.824;2023-04-06T14:55:42;9.0;;;8.0;;
45382;SDS011;42455;51.660;5.824;2023-04-06T15:00:48;10.0;;;9.0;;
45382;SDS011;42455;51.660;5.824;2023-04-06T15:05:55;10.0;;;9.0;;
45382;SDS011;42455;51.660;5.824;2023-04-06T15:11:00;9.0;;;8.0;;
45382;SDS011;42455;51.660;5.824;2023-04-06T15:16:07;10.0;;;9.0;;
45382;SDS011;42455;51.660;5.824;2023-04-06T15:21:13;10.0;;;9.0;;
45382;SDS011;42455;51.660;5.824;2023-04-06T15:26:19;11.0;;;10.0;;
45382;SDS011;42455;51.660;5.824;2023-04-06T15:31:25;12.0;;;11.0;;
45382;SDS011;42455;51.660;5.824;2023-04-06T15:36:32;12.0;;;10.5;;
45382;SDS011;42455;51.660;5.824;2023-04-06T15:41:38;12.0;;;11.0;;
45382;SDS011;42455;51.660;5.824;2023-04-06T15:46:44;12.0;;;11.0;;
45382;SDS011;42455;51.660;5.824;2023-04-06T15:51:50;12.0;;;11.0;;
45382;SDS011;42455;51.660;5.824;2023-04-06T15:56:55;12.0;;;11.0;;
45382;SDS011;42455;51.660;5.824;2023-04-06T16:02:02;12.0;;;11.0;;
45382;SDS011;42455;51.660;5.824;2023-04-06T16:07:07;13.0;;;11.0;;
45382;SDS011;42455;51.660;5.824;2023-04-06T16:12:13;12.0;;;11.0;;
45382;SDS011;42455;51.660;5.824;2023-04-06T16:17:20;12.0;;;10.0;;
45382;SDS011;42455;51.660;5.824;2023-04-06T16:22:25;11.0;;;10.0;;
45382;SDS011;42455;51.660;5.824;2023-04-06T16:27:31;10.0;;;9.0;;
45382;SDS011;42455;51.660;5.824;2023-04-06T16:32:37;11.0;;;10.0;;
45382;SDS011;42455;51.660;5.824;2023-04-06T16:37:43;10.0;;;9.0;;
45382;SDS011;42455;51.660;5.824;2023-04-06T16:42:49;10.0;;;9.0;;
45382;SDS011;42455;51.660;5.824;2023-04-06T16:47:56;12.0;;;10.0;;
45382;SDS011;42455;51.660;5.824;2023-04-06T16:53:02;10.0;;;9.0;;
45382;SDS011;42455;51.660;5.824;2023-04-06T16:58:08;10.0;;;9.0;;
45382;SDS011;42455;51.660;5.824;2023-04-06T17:03:14;11.0;;;10.0;;
45382;SDS011;42455;51.660;5.824;2023-04-06T17:08:20;10.0;;;9.0;;
45382;SDS011;42455;51.660;5.824;2023-04-06T17:13:27;11.0;;;10.0;;
45382;SDS011;42455;51.660;5.824;2023-04-06T17:18:33;9.0;;;8.0;;
45382;SDS011;42455;51.660;5.824;2023-04-06T17:23:39;8.0;;;7.0;;
45382;SDS011;42455;51.660;5.824;2023-04-06T17:28:45;11.0;;;10.0;;
45382;SDS011;42455;51.660;5.824;2023-04-06T17:33:51;8.0;;;7.5;;
45382;SDS011;42455;51.660;5.824;2023-04-06T17:38:58;8.0;;;7.0;;
45382;SDS011;42455;51.660;5.824;2023-04-06T17:44:04;9.0;;;9.0;;
45382;SDS011;42455;51.660;5.824;2023-04-06T17:49:10;29.0;;;26.5;;
45382;SDS011;42455;51.660;5.824;2023-04-06T17:54:16;7.5;;;7.0;;
45382;SDS011;42455;51.660;5.824;2023-04-06T17:59:22;6.5;;;6.0;;
45382;SDS011;42455;51.660;5.824;2023-04-06T18:04:29;7.0;;;6.0;;
45382;SDS011;42455;51.660;5.824;2023-04-06T18:09:35;7.0;;;6.0;;
45382;SDS011;42455;51.660;5.824;2023-04-06T18:14:40;49.5;;;45.5;;
45382;SDS011;42455;51.660;5.824;2023-04-06T18:19:46;8.0;;;8.0;;
45382;SDS011;42455;51.660;5.824;2023-04-06T18:24:52;10.0;;;9.0;;
45382;SDS011;42455;51.660;5.824;2023-04-06T18:29:58;8.0;;;7.0;;
45382;SDS011;42455;51.660;5.824;2023-04-06T18:35:04;7.0;;;7.0;;
45382;SDS011;42455;51.660;5.824;2023-04-06T18:40:10;7.0;;;7.0;;
45382;SDS011;42455;51.660;5.824;2023-04-06T18:45:16;11.0;;;10.0;;
45382;SDS011;42455;51.660;5.824;2023-04-06T18:50:23;8.0;;;7.0;;
45382;SDS011;42455;51.660;5.824;2023-04-06T18:55:30;7.0;;;7.0;;
45382;SDS011;42455;51.660;5.824;2023-04-06T19:00:38;8.0;;;7.0;;
45382;SDS011;42455;51.660;5.824;2023-04-06T19:05:41;8.0;;;8.0;;
45382;SDS011;42455;51.660;5.824;2023-04-06T19:10:47;14.0;;;12.5;;
45382;SDS011;42455;51.660;5.824;2023-04-06T19:15:54;8.0;;;8.0;;
45382;SDS011;42455;51.660;5.824;2023-04-06T19:21:00;8.0;;;7.0;;
45382;SDS011;42455;51.660;5.824;2023-04-06T19:26:07;24.5;;;22.0;;
45382;SDS011;42455;51.660;5.824;2023-04-06T19:31:13;11.0;;;10.5;;
45382;SDS011;42455;51.660;5.824;2023-04-06T19:36:18;10.0;;;9.0;;
45382;SDS011;42455;51.660;5.824;2023-04-06T19:41:25;11.0;;;10.0;;
45382;SDS011;42455;51.660;5.824;2023-04-06T19:46:31;11.0;;;10.0;;
45382;SDS011;42455;51.660;5.824;2023-04-06T19:51:37;11.0;;;10.0;;
45382;SDS011;42455;51.660;5.824;2023-04-06T19:56:43;12.0;;;11.0;;
45382;SDS011;42455;51.660;5.824;2023-04-06T20:01:50;13.0;;;12.0;;
45382;SDS011;42455;51.660;5.824;2023-04-06T20:06:56;14.0;;;13.0;;
45382;SDS011;42455;51.660;5.824;2023-04-06T20:12:01;14.0;;;13.0;;
45382;SDS011;42455;51.660;5.824;2023-04-06T20:17:07;16.0;;;15.0;;
45382;SDS011;42455;51.660;5.824;2023-04-06T20:22:13;15.0;;;14.0;;
45382;SDS011;42455;51.660;5.824;2023-04-06T20:27:20;20.0;;;18.0;;
45382;SDS011;42455;51.660;5.824;2023-04-06T20:32:26;15.0;;;14.0;;
45382;SDS011;42455;51.660;5.824;2023-04-06T20:37:33;17.5;;;16.0;;
45382;SDS011;42455;51.660;5.824;2023-04-06T20:42:38;16.0;;;14.0;;
45382;SDS011;42455;51.660;5.824;2023-04-06T20:47:44;17.0;;;15.0;;
45382;SDS011;42455;51.660;5.824;2023-04-06T20:52:51;16.0;;;15.0;;
45382;SDS011;42455;51.660;5.824;2023-04-06T20:57:57;16.0;;;15.0;;
45382;SDS011;42455;51.660;5.824;2023-04-06T21:03:03;17.0;;;16.0;;
45382;SDS011;42455;51.660;5.824;2023-04-06T21:08:09;16.0;;;15.0;;
45382;SDS011;42455;51.660;5.824;2023-04-06T21:13:15;18.0;;;16.0;;
45382;SDS011;42455;51.660;5.824;2023-04-06T21:18:22;18.0;;;16.0;;
45382;SDS011;42455;51.660;5.824;2023-04-06T21:23:28;18.0;;;16.0;;
45382;SDS011;42455;51.660;5.824;2023-04-06T21:28:34;19.0;;;17.0;;
45382;SDS011;42455;51.660;5.824;2023-04-06T21:33:40;19.0;;;17.0;;
45382;SDS011;42455;51.660;5.824;2023-04-06T21:38:47;19.0;;;17.0;;
45382;SDS011;42455;51.660;5.824;2023-04-06T21:43:53;19.0;;;18.0;;
45382;SDS011;42455;51.660;5.824;2023-04-06T21:48:59;20.0;;;18.0;;
45382;SDS011;42455;51.660;5.824;2023-04-06T21:54:05;21.0;;;19.0;;
45382;SDS011;42455;51.660;5.824;2023-04-06T21:59:10;22.0;;;20.0;;
45382;SDS011;42455;51.660;5.824;2023-04-06T22:04:17;23.5;;;21.0;;
45382;SDS011;42455;51.660;5.824;2023-04-06T22:09:22;24.0;;;22.0;;
45382;SDS011;42455;51.660;5.824;2023-04-06T22:14:28;27.0;;;24.0;;
45382;SDS011;42455;51.660;5.824;2023-04-06T22:19:34;29.0;;;26.0;;
45382;SDS011;42455;51.660;5.824;2023-04-06T22:24:39;29.0;;;26.0;;
45382;SDS011;42455;51.660;5.824;2023-04-06T22:29:46;30.0;;;27.0;;
45382;SDS011;42455;51.660;5.824;2023-04-06T22:34:52;32.0;;;28.0;;
45382;SDS011;42455;51.660;5.824;2023-04-06T22:39:58;30.5;;;27.0;;
45382;SDS011;42455;51.660;5.824;2023-04-06T22:45:04;30.5;;;27.0;;
45382;SDS011;42455;51.660;5.824;2023-04-06T22:50:10;31.0;;;27.0;;
45382;SDS011;42455;51.660;5.824;2023-04-06T22:55:17;31.0;;;26.0;;
45382;SDS011;42455;51.660;5.824;2023-04-06T23:00:23;31.0;;;26.0;;
45382;SDS011;42455;51.660;5.824;2023-04-06T23:05:29;29.5;;;25.0;;
45382;SDS011;42455;51.660;5.824;2023-04-06T23:10:35;26.0;;;23.0;;
45382;SDS011;42455;51.660;5.824;2023-04-06T23:15:41;24.0;;;21.0;;
45382;SDS011;42455;51.660;5.824;2023-04-06T23:20:48;23.0;;;19.5;;
45382;SDS011;42455;51.660;5.824;2023-04-06T23:25:54;22.0;;;18.0;;
45382;SDS011;42455;51.660;5.824;2023-04-06T23:31:00;19.0;;;17.0;;
45382;SDS011;42455;51.660;5.824;2023-04-06T23:36:07;21.0;;;18.0;;
45382;SDS011;42455;51.660;5.824;2023-04-06T23:41:13;22.0;;;17.0;;
45382;SDS011;42455;51.660;5.824;2023-04-06T23:46:19;19.0;;;15.0;;
45382;SDS011;42455;51.660;5.824;2023-04-06T23:51:25;17.0;;;14.0;;
45382;SDS011;42455;51.660;5.824;2023-04-06T23:56:31;14.5;;;12.0;;
